Time;durP1;ratioP1;P1;durP2;ratioP2;P2;SDS_P1;SDS_P2;PMS_P1;PMS_P2;Temp;Humidity;BMP_temperature;BMP_pressure;BME280_temperature;BME280_humidity;BME280_pressure;Samples;Min_cycle;Max_cycle;Signal;HPM_P1;HPM_P2
2021/01/01 00:01:47;;;;;;;6.55;2.63;;;25.60;43.80;;;;;;4976820;28;20381;-47
2021/01/01 00:04:14;;;;;;;7.75;2.63;;;25.60;43.70;;;;;;4976532;28;20038;-47
2021/01/01 00:06:46;;;;;;;6.85;2.58;;;25.60;43.70;;;;;;4976488;28;20038;-46
2021/01/01 00:09:14;;;;;;;7.78;2.53;;;25.60;43.70;;;;;;4976737;28;20054;-47
2021/01/01 00:11:40;;;;;;;5.82;2.47;;;25.70;43.80;;;;;;4976336;28;20041;-47
2021/01/01 00:14:08;;;;;;;4.50;2.40;;;25.60;43.80;;;;;;4976387;28;20118;-47
2021/01/01 00:16:35;;;;;;;8.68;2.45;;;25.70;43.80;;;;;;4975808;28;20038;-47
2021/01/01 00:19:01;;;;;;;6.43;2.45;;;25.70;43.80;;;;;;4976012;28;20033;-47
2021/01/01 00:21:31;;;;;;;8.70;2.60;;;25.70;43.80;;;;;;4975815;28;20042;-47
2021/01/01 00:23:59;;;;;;;6.90;2.50;;;25.70;43.70;;;;;;4975861;28;20043;-47
2021/01/01 00:26:26;;;;;;;7.10;2.60;;;25.70;43.70;;;;;;4975805;28;20027;-47
2021/01/01 00:28:53;;;;;;;7.40;2.53;;;25.70;43.70;;;;;;4976121;28;20023;-47
2021/01/01 00:31:21;;;;;;;6.22;2.40;;;25.70;43.70;;;;;;4975402;28;20062;-47
2021/01/01 00:33:49;;;;;;;10.20;3.13;;;25.70;43.70;;;;;;4974632;28;20034;-47
2021/01/01 00:36:17;;;;;;;11.07;3.10;;;25.60;43.70;;;;;;4975426;28;20030;-47
2021/01/01 00:38:54;;;;;;;8.55;2.80;;;25.60;43.60;;;;;;4975719;28;20050;-47
2021/01/01 00:41:40;;;;;;;8.07;2.63;;;25.60;43.70;;;;;;4975854;28;20019;-47
2021/01/01 00:44:07;;;;;;;6.05;2.60;;;25.60;43.80;;;;;;4975869;28;20034;-47
2021/01/01 00:46:33;;;;;;;12.13;2.80;;;25.50;43.80;;;;;;4975830;28;20041;-47
2021/01/01 00:49:00;;;;;;;6.18;2.60;;;25.50;43.70;;;;;;4975960;28;20054;-47
2021/01/01 00:51:32;;;;;;;10.02;2.72;;;25.50;43.90;;;;;;4970701;28;20029;-48
2021/01/01 00:54:02;;;;;;;8.35;2.83;;;25.50;43.80;;;;;;4964565;28;20211;-47
2021/01/01 00:56:30;;;;;;;11.15;2.90;;;25.40;43.90;;;;;;4975825;28;20384;-47
2021/01/01 00:58:57;;;;;;;9.00;2.60;;;25.40;44.00;;;;;;4975026;28;20054;-47
2021/01/01 01:01:27;;;;;;;6.93;2.25;;;25.40;44.10;;;;;;4974116;28;20473;-47
2021/01/01 01:03:57;;;;;;;7.80;2.63;;;25.30;44.10;;;;;;4974657;28;20122;-47
2021/01/01 01:06:25;;;;;;;6.50;2.45;;;25.30;44.20;;;;;;4975261;28;20058;-48
2021/01/01 01:08:51;;;;;;;8.20;2.63;;;25.30;44.30;;;;;;4975346;28;20373;-47
2021/01/01 01:11:28;;;;;;;7.93;2.63;;;25.20;44.30;;;;;;4974451;28;20385;-47
2021/01/01 01:13:56;;;;;;;7.47;2.40;;;25.20;44.30;;;;;;4975484;28;20034;-47
2021/01/01 01:16:32;;;;;;;9.50;2.33;;;25.20;44.30;;;;;;4974410;28;20488;-46
2021/01/01 01:19:00;;;;;;;6.05;2.05;;;25.20;44.40;;;;;;4975416;28;20053;-47
2021/01/01 01:21:27;;;;;;;9.32;2.55;;;25.10;44.40;;;;;;4975202;28;20062;-47
2021/01/01 01:23:55;;;;;;;10.43;2.53;;;25.10;44.40;;;;;;4975243;28;20031;-47
2021/01/01 01:26:22;;;;;;;8.55;2.40;;;25.10;44.50;;;;;;4975015;28;20058;-47
2021/01/01 01:28:49;;;;;;;16.27;2.83;;;25.10;44.60;;;;;;4975216;28;20027;-46
2021/01/01 01:31:16;;;;;;;9.02;2.38;;;25.00;44.50;;;;;;4974964;28;20034;-46
2021/01/01 01:33:43;;;;;;;6.90;2.22;;;25.00;44.60;;;;;;4975059;28;20110;-47
2021/01/01 01:36:09;;;;;;;9.18;2.35;;;25.00;44.70;;;;;;4974205;28;20089;-47
2021/01/01 01:38:36;;;;;;;5.38;1.88;;;25.00;44.70;;;;;;4974779;28;20023;-47
2021/01/01 01:41:03;;;;;;;7.53;2.00;;;25.00;44.70;;;;;;4975015;28;20420;-47
2021/01/01 01:43:29;;;;;;;4.63;2.20;;;25.00;44.70;;;;;;4974475;28;20043;-47
2021/01/01 01:45:56;;;;;;;7.88;2.25;;;25.00;44.80;;;;;;4974214;28;20062;-46
2021/01/01 01:48:27;;;;;;;4.20;1.85;;;25.00;44.80;;;;;;4974976;28;20022;-46
2021/01/01 01:50:54;;;;;;;10.18;1.92;;;25.00;44.70;;;;;;4974461;28;20109;-46
2021/01/01 01:53:22;;;;;;;7.47;2.20;;;25.00;44.80;;;;;;4974836;28;20031;-47
2021/01/01 01:55:51;;;;;;;7.53;1.98;;;24.90;44.70;;;;;;4974348;28;20384;-47
2021/01/01 01:58:20;;;;;;;5.68;2.10;;;25.00;44.80;;;;;;4974326;28;20034;-48
2021/01/01 02:00:59;;;;;;;4.93;2.00;;;24.90;44.80;;;;;;4974456;28;20026;-47
2021/01/01 02:03:29;;;;;;;4.30;1.90;;;24.90;44.80;;;;;;4974835;28;20101;-46
2021/01/01 02:05:57;;;;;;;3.58;1.50;;;24.90;44.80;;;;;;4974941;28;20035;-46
2021/01/01 02:08:24;;;;;;;7.65;1.80;;;24.90;44.90;;;;;;4974773;28;20034;-46
2021/01/01 02:10:53;;;;;;;5.53;1.90;;;24.90;44.90;;;;;;4974138;28;20038;-46
2021/01/01 02:13:20;;;;;;;4.85;1.63;;;24.90;44.90;;;;;;4975250;28;20043;-46
2021/01/01 02:15:47;;;;;;;4.38;1.58;;;24.80;44.90;;;;;;4974233;28;20481;-46
2021/01/01 02:18:32;;;;;;;6.43;1.80;;;24.80;44.90;;;;;;4974088;28;20412;-46
2021/01/01 02:20:58;;;;;;;7.90;2.05;;;24.80;44.90;;;;;;4974404;28;20035;-46
2021/01/01 02:23:25;;;;;;;12.30;1.80;;;24.80;45.00;;;;;;4974811;28;20465;-47
2021/01/01 02:25:51;;;;;;;4.53;1.90;;;24.80;45.00;;;;;;4974609;28;20027;-47
2021/01/01 02:28:19;;;;;;;7.22;1.80;;;24.70;45.10;;;;;;4974360;28;20584;-47
2021/01/01 02:30:45;;;;;;;10.27;2.30;;;24.70;45.10;;;;;;4974301;28;20027;-47
2021/01/01 02:33:12;;;;;;;4.03;1.60;;;24.60;45.00;;;;;;4974530;28;20031;-47
2021/01/01 02:35:38;;;;;;;7.13;2.17;;;24.60;45.20;;;;;;4973882;28;20109;-46
2021/01/01 02:38:05;;;;;;;8.82;2.05;;;24.60;45.20;;;;;;4974482;28;20069;-46
2021/01/01 02:40:31;;;;;;;9.75;1.83;;;24.50;45.30;;;;;;4974822;28;20034;-46
2021/01/01 02:42:58;;;;;;;5.05;1.70;;;24.50;45.30;;;;;;4974467;28;20027;-46
2021/01/01 02:45:24;;;;;;;7.28;1.73;;;24.50;45.40;;;;;;4974077;28;20455;-47
2021/01/01 02:47:51;;;;;;;5.47;2.05;;;24.50;45.50;;;;;;4974081;28;20023;-47
2021/01/01 02:50:18;;;;;;;4.53;1.80;;;24.50;45.50;;;;;;4974536;28;20042;-46
2021/01/01 02:52:45;;;;;;;5.57;1.77;;;24.50;45.50;;;;;;4974381;28;20042;-46
2021/01/01 02:55:12;;;;;;;5.75;1.30;;;24.50;45.60;;;;;;4973171;28;20027;-46
2021/01/01 02:57:38;;;;;;;6.55;1.60;;;24.60;45.60;;;;;;4976585;28;20512;-47
2021/01/01 03:00:07;;;;;;;4.13;1.80;;;24.50;45.50;;;;;;4977859;28;20042;-46
2021/01/01 03:02:33;;;;;;;2.95;1.50;;;24.60;45.50;;;;;;4977716;28;20027;-46
2021/01/01 03:05:00;;;;;;;4.90;1.92;;;24.60;45.50;;;;;;4977689;28;20038;-47
2021/01/01 03:07:26;;;;;;;3.55;1.30;;;24.50;45.50;;;;;;4977287;28;20434;-47
2021/01/01 03:09:53;;;;;;;3.15;1.48;;;24.60;45.50;;;;;;4977034;28;20027;-47
2021/01/01 03:12:19;;;;;;;3.10;1.60;;;24.60;45.50;;;;;;4978134;28;20456;-46
2021/01/01 03:14:46;;;;;;;2.72;1.20;;;24.60;45.50;;;;;;4977009;28;20061;-48
2021/01/01 03:17:12;;;;;;;6.05;1.60;;;24.50;45.40;;;;;;4977268;28;20038;-47
2021/01/01 03:19:39;;;;;;;5.10;1.52;;;24.60;45.50;;;;;;4976871;28;20082;-47
2021/01/01 03:22:05;;;;;;;4.32;1.60;;;24.50;45.40;;;;;;4977422;28;20086;-47
2021/01/01 03:24:32;;;;;;;3.35;1.33;;;24.50;45.40;;;;;;4977030;28;20472;-47
2021/01/01 03:26:58;;;;;;;4.88;1.70;;;24.50;45.50;;;;;;4976821;28;20031;-47
2021/01/01 03:29:25;;;;;;;7.57;2.60;;;24.50;45.40;;;;;;4977261;28;20035;-47
2021/01/01 03:31:51;;;;;;;13.10;2.28;;;24.50;45.40;;;;;;4976263;28;20077;-47
2021/01/01 03:34:18;;;;;;;4.47;1.75;;;24.50;45.30;;;;;;4976928;28;20038;-46
2021/01/01 03:36:44;;;;;;;5.25;1.88;;;24.40;45.30;;;;;;4976950;28;20082;-47
2021/01/01 03:39:11;;;;;;;4.78;1.52;;;24.40;45.30;;;;;;4976786;28;20030;-47
2021/01/01 03:41:37;;;;;;;4.30;1.70;;;24.30;45.30;;;;;;4977098;28;20051;-46
2021/01/01 03:44:04;;;;;;;4.18;1.60;;;24.30;45.40;;;;;;4976488;28;20463;-46
2021/01/01 03:46:31;;;;;;;10.25;1.80;;;24.20;45.50;;;;;;4976140;28;20037;-47
2021/01/01 03:48:57;;;;;;;5.43;1.60;;;24.20;45.60;;;;;;4976944;28;20055;-46
2021/01/01 03:51:24;;;;;;;3.70;1.70;;;24.10;45.60;;;;;;4976448;28;20102;-46
2021/01/01 03:53:50;;;;;;;6.70;1.70;;;24.10;45.70;;;;;;4976616;28;20054;-46
2021/01/01 03:56:17;;;;;;;7.65;1.80;;;24.10;45.80;;;;;;4976544;28;20054;-46
2021/01/01 03:58:43;;;;;;;5.32;1.83;;;24.00;45.80;;;;;;4976436;28;20039;-47
2021/01/01 04:01:10;;;;;;;2.70;1.67;;;24.00;45.90;;;;;;4976495;28;20018;-46
2021/01/01 04:03:36;;;;;;;6.90;1.70;;;23.90;45.90;;;;;;4976600;28;20447;-46
2021/01/01 04:06:03;;;;;;;3.95;1.65;;;23.90;46.00;;;;;;4976616;28;20026;-46
2021/01/01 04:08:29;;;;;;;3.38;1.50;;;23.90;46.00;;;;;;4976171;28;20041;-45
2021/01/01 04:10:56;;;;;;;4.43;1.60;;;23.90;46.10;;;;;;4975847;28;20031;-45
2021/01/01 04:13:22;;;;;;;6.75;1.73;;;23.80;46.10;;;;;;4976168;28;20469;-46
2021/01/01 04:15:49;;;;;;;2.95;1.60;;;23.90;46.20;;;;;;4976215;28;20030;-46
2021/01/01 04:18:16;;;;;;;3.83;1.75;;;23.90;46.20;;;;;;4976354;28;20018;-47
2021/01/01 04:20:43;;;;;;;4.90;1.70;;;23.80;46.20;;;;;;4976205;28;20035;-46
2021/01/01 04:23:10;;;;;;;3.30;1.50;;;23.80;46.20;;;;;;4975864;28;20125;-47
2021/01/01 04:25:37;;;;;;;3.83;1.52;;;23.80;46.30;;;;;;4975958;28;20034;-47
2021/01/01 04:28:03;;;;;;;8.43;1.73;;;23.80;46.30;;;;;;4976197;28;20029;-47
2021/01/01 04:30:30;;;;;;;2.25;1.40;;;23.80;46.40;;;;;;4976001;28;20447;-47
2021/01/01 04:32:56;;;;;;;5.57;1.80;;;23.80;46.40;;;;;;4975836;28;20481;-47
2021/01/01 04:35:23;;;;;;;3.53;1.65;;;23.70;46.30;;;;;;4975752;28;20103;-47
2021/01/01 04:37:50;;;;;;;3.53;1.52;;;23.80;46.40;;;;;;4975311;28;20465;-47
2021/01/01 04:40:17;;;;;;;4.72;1.58;;;23.80;46.40;;;;;;4975651;28;20573;-47
2021/01/01 04:42:43;;;;;;;5.68;1.55;;;23.80;46.40;;;;;;4976043;28;20042;-47
2021/01/01 04:45:10;;;;;;;3.65;1.50;;;23.90;46.40;;;;;;4975239;28;20027;-46
2021/01/01 04:47:37;;;;;;;5.72;1.80;;;23.90;46.40;;;;;;4975308;28;20460;-47
2021/01/01 04:50:04;;;;;;;3.03;1.40;;;23.90;46.40;;;;;;4975469;28;20082;-47
2021/01/01 04:52:32;;;;;;;4.18;1.70;;;24.00;46.40;;;;;;4975622;28;20039;-47
2021/01/01 04:55:00;;;;;;;2.85;1.40;;;24.00;46.30;;;;;;4975517;28;20034;-47
2021/01/01 04:57:30;;;;;;;4.28;1.50;;;24.10;46.30;;;;;;4974995;28;20030;-47
2021/01/01 04:59:56;;;;;;;5.20;1.50;;;24.10;46.20;;;;;;4975695;28;20082;-47
2021/01/01 05:02:23;;;;;;;2.70;1.20;;;24.20;46.20;;;;;;4975280;28;20065;-46
2021/01/01 05:04:50;;;;;;;3.67;1.25;;;24.20;46.10;;;;;;4975197;28;20057;-47
2021/01/01 05:07:20;;;;;;;5.20;1.35;;;24.30;46.70;;;;;;4975790;28;20038;-47
2021/01/01 05:09:48;;;;;;;3.63;1.20;;;24.30;45.90;;;;;;4974190;28;20030;-47
2021/01/01 05:12:15;;;;;;;4.03;1.40;;;24.40;45.90;;;;;;4975253;28;20369;-47
2021/01/01 05:14:42;;;;;;;1.92;1.10;;;24.40;45.80;;;;;;4975356;28;20039;-47
2021/01/01 05:17:12;;;;;;;2.17;1.30;;;24.50;45.70;;;;;;4975648;28;20037;-47
2021/01/01 05:19:41;;;;;;;4.20;1.50;;;24.50;45.70;;;;;;4974620;28;20110;-46
2021/01/01 05:22:09;;;;;;;4.32;1.33;;;24.60;45.70;;;;;;4975117;28;20023;-46
2021/01/01 05:24:48;;;;;;;2.92;1.20;;;24.70;45.60;;;;;;4975212;28;20031;-46
2021/01/01 05:27:17;;;;;;;2.00;1.17;;;24.70;45.50;;;;;;4974652;28;20037;-47
2021/01/01 05:29:51;;;;;;;1.88;1.30;;;24.70;45.40;;;;;;4974652;28;20380;-47
2021/01/01 05:32:23;;;;;;;3.22;1.40;;;24.80;45.30;;;;;;4975090;28;20062;-46
2021/01/01 05:34:50;;;;;;;5.03;1.52;;;24.80;45.20;;;;;;4975295;28;20062;-47
2021/01/01 05:37:27;;;;;;;12.80;4.15;;;24.80;45.10;;;;;;4974880;28;20037;-47
2021/01/01 05:40:29;;;;;;;12.82;2.35;;;24.80;45.00;;;;;;4974786;28;20031;-46
2021/01/01 05:42:56;;;;;;;6.25;1.83;;;24.90;45.00;;;;;;4974810;28;20041;-47
2021/01/01 05:45:27;;;;;;;7.03;2.33;;;24.90;44.90;;;;;;4974400;28;20473;-47
2021/01/01 05:48:06;;;;;;;7.22;2.47;;;24.90;44.90;;;;;;4974474;28;20034;-46
2021/01/01 05:50:34;;;;;;;6.60;2.17;;;24.80;44.80;;;;;;4974755;28;20062;-47
2021/01/01 05:53:14;;;;;;;5.47;2.22;;;24.80;44.90;;;;;;4973667;28;20433;-47
2021/01/01 05:55:42;;;;;;;4.03;2.00;;;24.80;44.90;;;;;;4974608;28;20085;-46
2021/01/01 05:58:25;;;;;;;4.78;1.85;;;24.70;44.90;;;;;;4974528;28;20093;-48
2021/01/01 06:00:54;;;;;;;6.30;1.88;;;24.70;44.90;;;;;;4974419;28;20519;-46
2021/01/01 06:03:23;;;;;;;5.32;1.83;;;24.70;45.00;;;;;;4973785;28;20045;-47
2021/01/01 06:05:53;;;;;;;5.93;1.77;;;24.70;45.00;;;;;;4975126;28;20071;-47
2021/01/01 06:08:27;;;;;;;4.97;1.88;;;24.60;45.00;;;;;;4974793;28;20033;-46
2021/01/01 06:11:00;;;;;;;7.15;1.77;;;24.60;45.00;;;;;;4968697;28;20070;-49
2021/01/01 06:13:32;;;;;;;4.10;1.90;;;24.60;45.00;;;;;;4972314;28;20086;-47
2021/01/01 17:27:55;;;;;;;13.40;1.42;;;22.50;49.70;;;;;;5111535;27;20413;-47
2021/01/01 17:30:22;;;;;;;8.63;1.70;;;22.40;50.70;;;;;;5112074;28;20020;-47
2021/01/01 17:32:49;;;;;;;8.82;1.23;;;22.40;50.60;;;;;;5098280;28;20116;-48
2021/01/01 17:35:15;;;;;;;9.48;1.58;;;22.50;50.50;;;;;;5091208;28;20025;-48
2021/01/01 17:37:42;;;;;;;8.27;1.33;;;22.60;50.40;;;;;;5091263;28;20127;-48
2021/01/01 17:40:09;;;;;;;10.48;1.55;;;22.70;50.30;;;;;;5089975;28;20436;-48
2021/01/01 17:42:40;;;;;;;10.38;1.60;;;22.70;50.20;;;;;;5091148;28;20064;-48
2021/01/01 17:45:08;;;;;;;9.70;1.45;;;22.90;50.20;;;;;;5091146;28;20028;-48
2021/01/01 17:47:36;;;;;;;6.70;1.63;;;23.00;50.20;;;;;;5090963;28;20032;-47
2021/01/01 17:50:08;;;;;;;7.25;1.55;;;23.10;49.90;;;;;;5090534;28;20376;-48
2021/01/01 17:52:41;;;;;;;6.32;1.70;;;23.20;49.60;;;;;;5091105;28;20027;-48
2021/01/01 17:55:08;;;;;;;10.38;1.85;;;23.40;49.50;;;;;;5090634;28;20083;-47
2021/01/01 17:57:35;;;;;;;9.02;1.50;;;23.40;49.50;;;;;;5089647;28;20024;-48
2021/01/01 18:00:05;;;;;;;4.20;1.60;;;23.60;49.40;;;;;;5090913;28;20046;-48
2021/01/01 18:02:35;;;;;;;5.95;1.40;;;23.70;49.10;;;;;;5090748;28;20024;-48
2021/01/01 18:05:02;;;;;;;6.68;1.45;;;23.80;48.80;;;;;;5091077;28;20455;-48
2021/01/01 18:07:28;;;;;;;4.40;1.35;;;23.90;48.60;;;;;;5091121;28;20039;-48
2021/01/01 18:09:55;;;;;;;6.90;1.38;;;24.00;48.50;;;;;;5090931;28;20040;-48
2021/01/01 18:12:22;;;;;;;6.78;1.33;;;24.10;48.20;;;;;;5090503;28;20040;-48
2021/01/01 18:14:49;;;;;;;7.60;1.38;;;24.20;48.00;;;;;;5090486;28;20028;-47
2021/01/01 18:17:15;;;;;;;3.80;1.30;;;24.30;47.80;;;;;;5090225;28;20074;-47
2021/01/01 18:19:45;;;;;;;5.38;1.27;;;24.40;47.60;;;;;;5088389;28;20032;-48
2021/01/01 18:22:12;;;;;;;5.90;1.20;;;24.50;47.30;;;;;;5081173;28;20107;-48
2021/01/01 18:24:39;;;;;;;3.17;1.27;;;24.50;47.20;;;;;;5070147;28;20061;-48
2021/01/01 18:27:07;;;;;;;4.43;1.30;;;24.60;47.00;;;;;;5083408;28;20114;-47
2021/01/01 18:29:34;;;;;;;9.05;1.73;;;24.70;46.90;;;;;;5089945;28;20382;-47
2021/01/01 18:32:04;;;;;;;3.42;1.38;;;24.70;46.60;;;;;;5089856;28;20085;-48
2021/01/01 18:34:32;;;;;;;10.20;1.70;;;24.80;46.40;;;;;;5090537;28;20032;-48
2021/01/01 18:37:01;;;;;;;7.75;1.60;;;24.90;46.90;;;;;;5089789;28;20434;-48
2021/01/01 18:39:29;;;;;;;11.55;1.80;;;24.90;46.00;;;;;;5075653;28;20464;-48
2021/01/01 18:41:58;;;;;;;15.05;1.95;;;25.00;45.90;;;;;;5076502;28;20403;-47
2021/01/01 18:44:29;;;;;;;10.18;1.50;;;25.10;45.80;;;;;;5074891;28;20053;-47
2021/01/01 18:46:59;;;;;;;11.30;1.80;;;25.10;45.70;;;;;;5088388;28;20509;-48
2021/01/01 18:49:26;;;;;;;7.80;1.52;;;25.10;45.60;;;;;;5076374;28;20111;-47
2021/01/01 18:51:54;;;;;;;9.90;2.00;;;25.10;45.60;;;;;;5075704;28;20468;-48
2021/01/01 18:54:41;;;;;;;13.20;1.70;;;25.10;45.40;;;;;;5076632;28;20028;-48
2021/01/01 18:57:10;;;;;;;8.30;1.60;;;25.20;45.50;;;;;;5076218;28;20042;-47
2021/01/01 18:59:52;;;;;;;8.07;1.77;;;25.20;45.40;;;;;;5076578;28;20035;-48
2021/01/01 19:02:25;;;;;;;10.68;1.70;;;25.20;45.40;;;;;;5076310;28;20123;-48
2021/01/01 19:05:15;;;;;;;7.90;2.00;;;25.30;45.40;;;;;;5074220;28;20442;-47
2021/01/01 19:07:53;;;;;;;7.25;1.70;;;25.30;45.20;;;;;;5076078;28;20067;-48
2021/01/01 19:10:25;;;;;;;7.63;1.90;;;25.50;45.20;;;;;;5075522;28;20380;-47
2021/01/01 19:12:54;;;;;;;9.68;1.83;;;25.60;45.10;;;;;;5076299;28;20470;-47
2021/01/01 19:15:26;;;;;;;9.88;1.90;;;25.80;45.00;;;;;;5075869;28;20052;-47
2021/01/01 19:18:02;;;;;;;6.85;1.73;;;25.90;44.60;;;;;;5076310;28;20020;-47
2021/01/01 19:20:29;;;;;;;4.93;1.40;;;26.10;44.40;;;;;;5076518;28;20452;-47
2021/01/01 19:23:14;;;;;;;6.45;1.52;;;26.30;44.40;;;;;;5075683;28;20462;-47
2021/01/01 19:25:43;;;;;;;4.72;1.63;;;26.40;44.20;;;;;;5075633;28;20139;-48
2021/01/01 19:28:12;;;;;;;12.52;1.60;;;26.60;43.90;;;;;;5076038;28;20085;-47
2021/01/01 19:30:58;;;;;;;5.97;1.67;;;26.80;43.60;;;;;;5075676;28;20111;-48
2021/01/01 19:33:24;;;;;;;3.60;1.50;;;26.90;43.30;;;;;;5075423;28;20487;-48
2021/01/01 19:35:54;;;;;;;14.32;2.00;;;27.00;43.30;;;;;;5075544;28;20047;-48
2021/01/01 19:38:30;;;;;;;7.68;1.50;;;27.20;43.00;;;;;;5075407;28;20036;-47
2021/01/01 19:41:07;;;;;;;6.13;1.33;;;27.30;42.90;;;;;;5076141;28;20467;-47
2021/01/01 19:44:11;;;;;;;11.38;2.15;;;27.30;42.70;;;;;;5076245;28;20024;-47
2021/01/01 19:47:06;;;;;;;8.55;1.73;;;27.40;42.50;;;;;;5013763;28;20061;-47
2021/01/01 19:49:51;;;;;;;7.57;1.50;;;27.40;42.40;;;;;;5073403;28;20086;-47
2021/01/01 19:52:40;;;;;;;6.93;1.55;;;27.60;42.50;;;;;;5075887;28;20025;-47
2021/01/01 19:55:11;;;;;;;2.92;1.17;;;27.60;42.20;;;;;;5075288;28;20503;-47
2021/01/01 19:57:57;;;;;;;3.78;1.33;;;27.60;42.70;;;;;;5075963;28;20116;-48
2021/01/01 20:00:37;;;;;;;4.38;1.38;;;27.60;42.00;;;;;;5075364;28;20044;-47
2021/01/01 20:03:11;;;;;;;4.97;1.42;;;27.60;41.80;;;;;;5075686;28;20338;-47
2021/01/01 20:05:42;;;;;;;7.68;1.60;;;27.60;41.80;;;;;;5075172;28;20032;-47
2021/01/01 20:08:23;;;;;;;5.40;1.60;;;27.70;41.80;;;;;;5074857;28;20028;-48
2021/01/01 20:10:51;;;;;;;4.93;1.30;;;27.60;41.80;;;;;;5075664;28;20021;-48
2021/01/01 20:13:18;;;;;;;4.07;1.42;;;27.60;41.80;;;;;;5074844;28;20041;-48
2021/01/01 20:15:45;;;;;;;4.32;1.50;;;27.60;41.70;;;;;;5074587;28;20035;-48
2021/01/01 20:18:13;;;;;;;3.13;1.17;;;27.50;41.70;;;;;;5074747;28;20032;-47
2021/01/01 20:20:42;;;;;;;7.75;1.75;;;27.50;41.70;;;;;;5074679;28;20036;-48
2021/01/01 20:23:10;;;;;;;5.15;1.40;;;27.50;41.70;;;;;;5074687;28;20048;-48
2021/01/01 20:25:37;;;;;;;7.38;1.42;;;27.40;41.60;;;;;;5074064;28;20039;-48
2021/01/01 20:28:05;;;;;;;3.28;1.30;;;27.30;41.70;;;;;;5073394;28;20028;-48
2021/01/01 20:30:34;;;;;;;5.55;1.70;;;27.30;41.70;;;;;;5080469;28;20107;-48
2021/01/01 20:33:02;;;;;;;3.28;1.30;;;27.20;41.60;;;;;;5080321;28;20025;-48
2021/01/01 20:35:36;;;;;;;3.53;1.50;;;27.20;41.80;;;;;;5074102;28;20024;-48
2021/01/01 20:38:39;;;;;;;6.45;1.52;;;27.10;41.70;;;;;;5073270;28;20044;-48
2021/01/01 20:41:21;;;;;;;4.85;1.45;;;27.00;41.90;;;;;;5074454;28;20062;-48
2021/01/01 20:43:59;;;;;;;;;;;27.00;41.90;;;;;;5075806;28;20028;-48
2021/01/01 20:58:10;;;;;;;10.95;2.45;;;26.50;41.90;;;;;;5051616;28;20536;-48
2021/01/01 21:00:42;;;;;;;4.93;2.08;;;26.40;42.10;;;;;;5051455;28;20033;-48
2021/01/01 21:03:10;;;;;;;5.95;2.63;;;26.30;42.20;;;;;;5052717;28;20393;-48
2021/01/01 21:05:39;;;;;;;9.68;2.38;;;26.20;42.30;;;;;;5067295;28;20060;-48
2021/01/01 21:08:20;;;;;;;11.88;2.92;;;26.10;42.20;;;;;;5072902;28;20028;-47
2021/01/01 21:11:31;;;;;;;11.93;3.38;;;26.10;42.50;;;;;;5074068;28;20040;-48
2021/01/01 21:14:22;;;;;;;6.97;2.88;;;25.90;42.60;;;;;;5073479;28;20078;-48
2021/01/01 21:17:46;;;;;;;7.75;3.08;;;25.80;42.90;;;;;;5053712;28;20083;-48
2021/01/01 21:20:16;;;;;;;7.65;2.70;;;25.70;43.00;;;;;;4992144;28;20124;-48
2021/01/01 21:23:19;;;;;;;6.30;2.80;;;25.60;43.10;;;;;;4992759;28;20459;-48
2021/01/01 21:26:28;;;;;;;11.20;3.20;;;25.60;43.30;;;;;;5047042;28;20060;-48
2021/01/01 21:29:22;;;;;;;10.38;2.65;;;25.50;43.30;;;;;;5011719;28;20056;-48
2021/01/01 21:32:16;;;;;;;7.53;2.80;;;25.40;43.50;;;;;;5011758;28;20188;-48
2021/01/01 21:34:54;;;;;;;10.00;3.05;;;25.40;43.60;;;;;;5064552;28;20487;-49
2021/01/01 21:37:48;;;;;;;8.43;2.90;;;25.30;43.70;;;;;;5070797;28;20518;-48
2021/01/01 21:40:14;;;;;;;6.15;2.75;;;25.30;43.90;;;;;;5073526;28;20479;-48
2021/01/01 21:43:18;;;;;;;10.25;3.13;;;25.20;43.90;;;;;;5073747;28;20052;-48
2021/01/01 21:46:03;;;;;;;6.75;2.70;;;25.20;44.00;;;;;;5073585;28;20090;-48
2021/01/01 21:49:07;;;;;;;7.00;2.58;;;25.10;44.10;;;;;;5073500;28;20024;-49
2021/01/01 21:51:35;;;;;;;6.32;2.90;;;25.10;44.10;;;;;;5073865;28;20341;-49
2021/01/01 21:54:03;;;;;;;8.10;2.88;;;25.10;44.20;;;;;;5073186;28;20475;-48
2021/01/01 21:56:29;;;;;;;8.48;3.03;;;25.10;44.20;;;;;;5072988;28;20037;-48
2021/01/01 21:58:55;;;;;;;5.57;2.90;;;25.10;44.20;;;;;;5072682;28;20043;-49
2021/01/01 22:01:26;;;;;;;7.18;2.15;;;25.10;44.30;;;;;;5072663;28;20050;-48
2021/01/01 22:03:53;;;;;;;7.53;2.40;;;25.10;44.40;;;;;;5072492;28;20467;-49
2021/01/01 22:06:24;;;;;;;4.75;2.10;;;25.10;44.30;;;;;;5073361;28;20025;-49
2021/01/01 22:08:55;;;;;;;6.07;2.38;;;25.10;44.40;;;;;;5072928;28;20032;-49
2021/01/01 22:11:22;;;;;;;;;;;25.10;44.40;;;;;;5074092;28;20017;-49
2021/01/01 22:13:48;;;;;;;7.00;2.45;;;25.00;44.50;;;;;;5075581;28;19905;-49
2021/01/01 22:16:15;;;;;;;6.95;2.50;;;25.00;44.50;;;;;;5076954;28;20036;-49
2021/01/01 22:18:41;;;;;;;6.78;2.67;;;25.00;44.50;;;;;;5072148;28;20032;-49
2021/01/01 22:21:08;;;;;;;6.43;2.60;;;25.00;44.50;;;;;;5069084;28;20464;-49
2021/01/01 22:23:35;;;;;;;6.35;2.97;;;25.00;44.60;;;;;;5076338;28;20426;-48
2021/01/01 22:26:01;;;;;;;10.23;2.83;;;24.90;44.60;;;;;;5074427;28;20059;-48
2021/01/01 22:28:28;;;;;;;8.38;2.63;;;24.90;44.60;;;;;;5074789;28;20021;-50
2021/01/01 22:30:55;;;;;;;8.07;3.20;;;24.90;44.50;;;;;;5075872;28;20024;-49
2021/01/01 22:33:21;;;;;;;5.68;2.50;;;24.90;44.70;;;;;;5077088;28;20020;-48
2021/01/01 22:35:48;;;;;;;8.38;2.70;;;24.90;44.60;;;;;;5076220;28;20399;-48
2021/01/01 22:38:14;;;;;;;7.07;2.80;;;24.90;44.60;;;;;;5076305;28;20533;-49
2021/01/01 22:40:41;;;;;;;7.70;2.72;;;24.90;44.70;;;;;;5076584;28;20020;-49
2021/01/01 22:43:07;;;;;;;6.85;2.50;;;24.90;44.90;;;;;;5076657;28;20103;-48
2021/01/01 22:45:34;;;;;;;6.70;2.85;;;25.00;45.00;;;;;;5076523;28;20028;-48
2021/01/01 22:48:00;;;;;;;7.18;2.72;;;25.00;45.20;;;;;;5076550;28;20070;-48
2021/01/01 22:50:27;;;;;;;7.28;2.90;;;25.00;45.20;;;;;;5076421;28;20036;-48
2021/01/01 22:52:53;;;;;;;10.40;3.67;;;25.00;45.10;;;;;;5073333;28;20028;-48
2021/01/01 22:55:20;;;;;;;10.50;3.17;;;25.00;45.20;;;;;;5076046;28;20087;-48
2021/01/01 22:57:55;;;;;;;15.63;2.70;;;25.00;45.20;;;;;;5076223;28;20387;-48
2021/01/01 23:00:32;;;;;;;6.07;2.97;;;25.00;45.30;;;;;;5091230;28;20353;-47
2021/01/01 23:03:02;;;;;;;7.82;2.65;;;25.10;45.30;;;;;;5076265;28;20021;-48
2021/01/01 23:05:33;;;;;;;6.90;2.60;;;25.10;45.20;;;;;;5076479;28;20052;-48
2021/01/01 23:08:00;;;;;;;8.57;2.65;;;25.10;45.20;;;;;;5075943;28;20031;-48
2021/01/01 23:10:27;;;;;;;6.57;2.70;;;25.10;45.20;;;;;;5075647;28;20123;-48
2021/01/01 23:12:54;;;;;;;6.35;2.80;;;25.10;45.10;;;;;;5075962;28;20455;-48
2021/01/01 23:15:22;;;;;;;8.93;2.78;;;25.10;45.10;;;;;;5075604;28;20371;-47
2021/01/01 23:17:56;;;;;;;6.18;2.83;;;25.10;45.00;;;;;;5075770;28;20093;-47
2021/01/01 23:20:28;;;;;;;4.13;2.28;;;25.10;45.00;;;;;;5076504;28;20020;-48
2021/01/01 23:22:57;;;;;;;7.28;2.38;;;25.10;45.00;;;;;;5075642;28;20016;-48
2021/01/01 23:25:29;;;;;;;4.97;2.50;;;25.10;44.90;;;;;;5075727;28;20070;-48
2021/01/01 23:27:58;;;;;;;5.53;2.65;;;25.10;45.00;;;;;;5075832;28;20037;-47
2021/01/01 23:30:29;;;;;;;5.65;2.45;;;25.10;44.90;;;;;;5075743;28;20421;-47
2021/01/01 23:33:09;;;;;;;14.60;2.60;;;25.10;44.90;;;;;;5075583;28;20028;-47
2021/01/01 23:35:40;;;;;;;4.60;2.30;;;25.10;44.90;;;;;;5074298;28;20093;-47
2021/01/01 23:38:09;;;;;;;5.78;2.40;;;25.10;44.90;;;;;;5075131;28;20499;-47
2021/01/01 23:40:49;;;;;;;4.68;2.13;;;25.10;44.90;;;;;;5075549;28;20162;-47
2021/01/01 23:43:24;;;;;;;7.10;2.40;;;25.10;44.90;;;;;;5075729;28;20099;-47
2021/01/01 23:46:02;;;;;;;6.13;2.30;;;25.10;44.90;;;;;;5075533;28;20032;-47
2021/01/01 23:48:38;;;;;;;5.72;2.30;;;25.10;44.90;;;;;;5075715;28;20070;-48
2021/01/01 23:51:05;;;;;;;5.15;2.00;;;25.10;44.90;;;;;;5075380;28;20113;-48
2021/01/01 23:53:33;;;;;;;8.18;2.10;;;25.10;44.90;;;;;;5090277;28;20452;-48
2021/01/01 23:56:00;;;;;;;4.53;2.08;;;25.00;44.80;;;;;;5084781;28;20040;-48
2021/01/01 23:58:26;;;;;;;14.07;2.20;;;25.00;44.80;;;;;;5074943;28;20036;-48
